This is the latest recevied weather packets stored in our database for station/object W9PEM-13. If no packets are shown the sender has not sent any weather packets the latest 10 day(s).
| Time | Temp. | Humidity | Pressure | Rain* | Wind** | Luminosity | Snow |
|---|---|---|---|---|---|---|---|
| 1787444556 | 20° C | 85% | 1014.2 hPa | 0 mm | - | 26 W/m² | - |
| 1787444330 | 20° C | 85% | 1014.2 hPa | 0 mm | - | 26 W/m² | - |
| 1787443958 | 20.56° C | 83% | 1014.2 hPa | 0 mm | - | 34 W/m² | - |
| 1787443728 | 20.56° C | 83% | 1014.2 hPa | 0 mm | - | 34 W/m² | - |
| 1787443355 | 20.56° C | 84% | 1014.3 hPa | 0 mm | - | 66 W/m² | - |
| 1787443127 | 20.56° C | 84% | 1014.3 hPa | 0 mm | - | 66 W/m² | - |
| 1787442795 | 20° C | 85% | 1014.2 hPa | 0 mm | - | 79 W/m² | - |
| 1787442057 | 20.56° C | 84% | 1014.2 hPa | 0 mm | - | 91 W/m² | - |
| 1787441926 | 20.56° C | 84% | 1014.2 hPa | 0 mm | - | 91 W/m² | - |
| 1787441562 | 21.11° C | 81% | 1014.1 hPa | 0 mm | - | 107 W/m² | - |
| 1787441326 | 21.11° C | 81% | 1014.1 hPa | 0 mm | - | 107 W/m² | - |
| 1787440921 | 20.56° C | 84% | 1014 hPa | 0 mm | - | 140 W/m² | - |
| 1787440725 | 20.56° C | 84% | 1014 hPa | 0 mm | - | 140 W/m² | - |
| 1787440345 | 21.67° C | 83% | 1014 hPa | 0 mm | - | 65 W/m² | - |
| 1787440125 | 21.67° C | 83% | 1014 hPa | 0 mm | - | 65 W/m² | - |
| 1787439748 | 22.78° C | 76% | 1014 hPa | 4.83 mm | - | 46 W/m² | - |
| 1787439524 | 22.78° C | 76% | 1014 hPa | 4.83 mm | - | 46 W/m² | - |
| 1787439162 | 22.78° C | 76% | 1013.9 hPa | 5.33 mm | - | 229 W/m² | - |
| 1787438924 | 22.78° C | 76% | 1013.9 hPa | 5.33 mm | - | 229 W/m² | - |
| 1787438579 | 21.67° C | 79% | 1013.7 hPa | 5.33 mm | - | 266 W/m² | - |
| 1787438324 | 21.67° C | 79% | 1013.7 hPa | 5.33 mm | - | 266 W/m² | - |
| 1787437982 | 20.56° C | 81% | 1013.7 hPa | 5.33 mm | - | 295 W/m² | - |
| 1787437724 | 20.56° C | 81% | 1013.7 hPa | 5.33 mm | - | 295 W/m² | - |
| 1787437294 | 19.44° C | 84% | 1013.8 hPa | 5.33 mm | - | 335 W/m² | - |
| 1787437122 | 19.44° C | 84% | 1013.8 hPa | 5.33 mm | - | 335 W/m² | - |
* Rain latest hour (hover to see other rain measurements)
** Current wind speed in m/s (hover to see current wind gust speed)